Kezdőlap
METAR-TAF:

METAR-TAF

Repülőterek :

Pointe-à-Pitre, Guadeloupe

földrajzi szélesség: 16-16N, földrajzi hosszúság: 061-31W, magasság: 11 m

Jelenlegi meteorológiai megfigyelések

A jelentés 37 perccel ezelõtt készült, 09:00 UTC
Keleti szél 7 kt
Hőmérséklet 24°C
Páratartalom 89%
Légköri nyomás 1014 hPa
Látótávolság 10 km, vagy több
felhőtlen 1500 m magasságban, és nincs gomolyfelhõ

METAR: TFFR 090900Z AUTO 10007KT CAVOK 24/22 Q1014

Idő: 05:37 (09:37 UTC)


TAF: hiányzik

Meteorológiai megfigyelések és előrejelzések több, mint 4000 repülőtéren (METAR és TAF jelentéseket).

A térképen piros és sárga pontok jelzik az elérhető meteorológiai állomásokat.

Mozgassa az egeret a pont fölött, hogy megjelenjen az állomás neve.

Azután kattintson az időjárási megfigyelések és előrejelzések megtekintéséhez.

A térkép megváltoztatása: kattintson a fekete keresztel jelölt zöld gombra ráközelítéshez, a vonallal jelölt zöld gombra távolításhoz, vagy a zöld nyilakra a szomszédos térképek eléréséhez.


METAR-TAF: